sensor_id;sensor_type;location;lat;lon;timestamp;P1;durP1;ratioP1;P2;durP2;ratioP2
49784;SDS011;35679;38.732;-121.358;2022-08-11T00:01:23;2.50;;;2.40;;
49784;SDS011;35679;38.732;-121.358;2022-08-11T00:04:14;2.38;;;2.28;;
49784;SDS011;35679;38.732;-121.358;2022-08-11T00:07:04;2.40;;;2.30;;
49784;SDS011;35679;38.732;-121.358;2022-08-11T00:09:55;2.20;;;2.10;;
49784;SDS011;35679;38.732;-121.358;2022-08-11T00:12:50;2.33;;;2.17;;
49784;SDS011;35679;38.732;-121.358;2022-08-11T00:15:44;2.50;;;2.40;;
49784;SDS011;35679;38.732;-121.358;2022-08-11T00:18:44;2.60;;;2.40;;
49784;SDS011;35679;38.732;-121.358;2022-08-11T00:21:40;2.63;;;2.50;;
49784;SDS011;35679;38.732;-121.358;2022-08-11T00:24:51;2.35;;;2.25;;
49784;SDS011;35679;38.732;-121.358;2022-08-11T00:27:48;2.20;;;2.10;;
49784;SDS011;35679;38.732;-121.358;2022-08-11T00:30:38;2.17;;;2.05;;
49784;SDS011;35679;38.732;-121.358;2022-08-11T00:33:31;2.20;;;2.10;;
49784;SDS011;35679;38.732;-121.358;2022-08-11T00:36:39;2.30;;;2.10;;
49784;SDS011;35679;38.732;-121.358;2022-08-11T00:39:35;2.30;;;2.20;;
49784;SDS011;35679;38.732;-121.358;2022-08-11T00:45:42;2.10;;;2.00;;
49784;SDS011;35679;38.732;-121.358;2022-08-11T00:49:02;2.33;;;2.22;;
49784;SDS011;35679;38.732;-121.358;2022-08-11T01:01:31;9.63;;;3.35;;
49784;SDS011;35679;38.732;-121.358;2022-08-11T01:10:53;2.53;;;2.10;;
49784;SDS011;35679;38.732;-121.358;2022-08-11T01:24:24;4.03;;;2.05;;
49784;SDS011;35679;38.732;-121.358;2022-08-11T01:47:24;2.20;;;2.10;;
49784;SDS011;35679;38.732;-121.358;2022-08-11T01:54:02;2.08;;;1.90;;
49784;SDS011;35679;38.732;-121.358;2022-08-11T02:00:26;2.30;;;2.10;;
49784;SDS011;35679;38.732;-121.358;2022-08-11T02:13:33;2.20;;;2.10;;
49784;SDS011;35679;38.732;-121.358;2022-08-11T02:25:56;2.60;;;2.00;;
49784;SDS011;35679;38.732;-121.358;2022-08-11T02:32:57;2.45;;;1.70;;
49784;SDS011;35679;38.732;-121.358;2022-08-11T02:39:16;4.85;;;1.80;;
49784;SDS011;35679;38.732;-121.358;2022-08-11T02:42:15;2.03;;;1.90;;
49784;SDS011;35679;38.732;-121.358;2022-08-11T02:46:31;2.72;;;1.95;;
49784;SDS011;35679;38.732;-121.358;2022-08-11T02:49:10;2.13;;;1.77;;
49784;SDS011;35679;38.732;-121.358;2022-08-11T02:53:02;3.60;;;2.35;;
49784;SDS011;35679;38.732;-121.358;2022-08-11T03:06:00;3.00;;;1.60;;
49784;SDS011;35679;38.732;-121.358;2022-08-11T03:09:13;1.80;;;1.70;;
49784;SDS011;35679;38.732;-121.358;2022-08-11T03:12:15;2.05;;;1.95;;
49784;SDS011;35679;38.732;-121.358;2022-08-11T03:15:45;1.77;;;1.67;;
49784;SDS011;35679;38.732;-121.358;2022-08-11T03:25:23;1.73;;;1.63;;
49784;SDS011;35679;38.732;-121.358;2022-08-11T03:28:23;3.63;;;1.85;;
49784;SDS011;35679;38.732;-121.358;2022-08-11T03:31:45;2.47;;;2.00;;
49784;SDS011;35679;38.732;-121.358;2022-08-11T03:34:44;1.80;;;1.70;;
49784;SDS011;35679;38.732;-121.358;2022-08-11T03:37:51;1.80;;;1.70;;
49784;SDS011;35679;38.732;-121.358;2022-08-11T03:48:37;1.77;;;1.48;;
49784;SDS011;35679;38.732;-121.358;2022-08-11T04:05:16;1.40;;;1.30;;
49784;SDS011;35679;38.732;-121.358;2022-08-11T04:08:04;1.55;;;1.45;;
49784;SDS011;35679;38.732;-121.358;2022-08-11T04:18:09;1.67;;;1.58;;
49784;SDS011;35679;38.732;-121.358;2022-08-11T04:24:26;7.18;;;2.30;;
49784;SDS011;35679;38.732;-121.358;2022-08-11T05:04:39;1.92;;;1.83;;
49784;SDS011;35679;38.732;-121.358;2022-08-11T05:11:32;1.50;;;1.40;;
49784;SDS011;35679;38.732;-121.358;2022-08-11T05:14:49;1.60;;;1.50;;
49784;SDS011;35679;38.732;-121.358;2022-08-11T05:18:04;1.70;;;1.60;;
49784;SDS011;35679;38.732;-121.358;2022-08-11T05:21:19;1.65;;;1.52;;
49784;SDS011;35679;38.732;-121.358;2022-08-11T05:24:55;1.80;;;1.70;;
49784;SDS011;35679;38.732;-121.358;2022-08-11T05:31:40;2.17;;;1.50;;
49784;SDS011;35679;38.732;-121.358;2022-08-11T05:34:50;1.20;;;1.20;;
49784;SDS011;35679;38.732;-121.358;2022-08-11T05:37:42;2.90;;;1.50;;
49784;SDS011;35679;38.732;-121.358;2022-08-11T05:40:51;3.92;;;1.70;;
49784;SDS011;35679;38.732;-121.358;2022-08-11T05:44:02;1.60;;;1.50;;
49784;SDS011;35679;38.732;-121.358;2022-08-11T05:47:11;1.60;;;1.50;;
49784;SDS011;35679;38.732;-121.358;2022-08-11T05:50:31;1.52;;;1.42;;
49784;SDS011;35679;38.732;-121.358;2022-08-11T05:53:43;1.63;;;1.52;;
49784;SDS011;35679;38.732;-121.358;2022-08-11T05:57:19;3.05;;;1.60;;
49784;SDS011;35679;38.732;-121.358;2022-08-11T06:00:42;1.52;;;1.50;;
49784;SDS011;35679;38.732;-121.358;2022-08-11T06:03:34;2.17;;;1.48;;
49784;SDS011;35679;38.732;-121.358;2022-08-11T06:06:55;1.90;;;1.63;;
49784;SDS011;35679;38.732;-121.358;2022-08-11T06:09:56;1.48;;;1.38;;
49784;SDS011;35679;38.732;-121.358;2022-08-11T06:12:50;1.50;;;1.40;;
49784;SDS011;35679;38.732;-121.358;2022-08-11T06:15:44;1.63;;;1.52;;
49784;SDS011;35679;38.732;-121.358;2022-08-11T06:18:35;1.70;;;1.60;;
49784;SDS011;35679;38.732;-121.358;2022-08-11T06:21:25;2.45;;;1.92;;
49784;SDS011;35679;38.732;-121.358;2022-08-11T06:24:15;2.03;;;1.58;;
49784;SDS011;35679;38.732;-121.358;2022-08-11T06:27:04;3.05;;;1.63;;
49784;SDS011;35679;38.732;-121.358;2022-08-11T06:29:59;1.60;;;1.45;;
49784;SDS011;35679;38.732;-121.358;2022-08-11T06:32:50;1.50;;;1.40;;
49784;SDS011;35679;38.732;-121.358;2022-08-11T06:42:08;1.45;;;1.40;;
49784;SDS011;35679;38.732;-121.358;2022-08-11T06:48:23;2.28;;;2.13;;
49784;SDS011;35679;38.732;-121.358;2022-08-11T06:51:13;1.70;;;1.60;;
49784;SDS011;35679;38.732;-121.358;2022-08-11T06:54:03;1.50;;;1.40;;
49784;SDS011;35679;38.732;-121.358;2022-08-11T06:56:54;2.45;;;1.75;;
49784;SDS011;35679;38.732;-121.358;2022-08-11T07:00:18;1.73;;;1.63;;
49784;SDS011;35679;38.732;-121.358;2022-08-11T07:03:20;1.98;;;1.88;;
49784;SDS011;35679;38.732;-121.358;2022-08-11T07:13:10;1.92;;;1.83;;
49784;SDS011;35679;38.732;-121.358;2022-08-11T07:16:32;2.40;;;1.42;;
49784;SDS011;35679;38.732;-121.358;2022-08-11T07:19:23;2.10;;;1.60;;
49784;SDS011;35679;38.732;-121.358;2022-08-11T07:22:33;1.60;;;1.50;;
49784;SDS011;35679;38.732;-121.358;2022-08-11T07:25:43;1.63;;;1.52;;
49784;SDS011;35679;38.732;-121.358;2022-08-11T07:29:12;1.80;;;1.70;;
49784;SDS011;35679;38.732;-121.358;2022-08-11T07:32:19;1.88;;;1.60;;
49784;SDS011;35679;38.732;-121.358;2022-08-11T07:35:15;1.70;;;1.60;;
49784;SDS011;35679;38.732;-121.358;2022-08-11T07:38:10;1.50;;;1.40;;
49784;SDS011;35679;38.732;-121.358;2022-08-11T07:41:13;1.60;;;1.40;;
49784;SDS011;35679;38.732;-121.358;2022-08-11T07:44:04;1.67;;;1.58;;
49784;SDS011;35679;38.732;-121.358;2022-08-11T07:46:56;3.08;;;1.50;;
49784;SDS011;35679;38.732;-121.358;2022-08-11T07:50:05;1.70;;;1.60;;
49784;SDS011;35679;38.732;-121.358;2022-08-11T07:53:17;2.30;;;1.67;;
49784;SDS011;35679;38.732;-121.358;2022-08-11T07:56:08;2.70;;;1.80;;
49784;SDS011;35679;38.732;-121.358;2022-08-11T07:59:08;2.47;;;1.63;;
49784;SDS011;35679;38.732;-121.358;2022-08-11T08:02:36;1.60;;;1.50;;
49784;SDS011;35679;38.732;-121.358;2022-08-11T08:05:44;1.70;;;1.60;;
49784;SDS011;35679;38.732;-121.358;2022-08-11T08:09:14;1.70;;;1.60;;
49784;SDS011;35679;38.732;-121.358;2022-08-11T08:12:24;2.58;;;1.65;;
49784;SDS011;35679;38.732;-121.358;2022-08-11T08:15:32;1.80;;;1.70;;
49784;SDS011;35679;38.732;-121.358;2022-08-11T08:18:40;1.80;;;1.70;;
49784;SDS011;35679;38.732;-121.358;2022-08-11T08:21:30;2.67;;;1.77;;
49784;SDS011;35679;38.732;-121.358;2022-08-11T08:24:19;1.92;;;1.70;;
49784;SDS011;35679;38.732;-121.358;2022-08-11T08:27:09;1.80;;;1.70;;
49784;SDS011;35679;38.732;-121.358;2022-08-11T08:30:02;1.83;;;1.67;;
49784;SDS011;35679;38.732;-121.358;2022-08-11T08:33:17;1.98;;;1.80;;
49784;SDS011;35679;38.732;-121.358;2022-08-11T08:36:06;2.42;;;1.75;;
49784;SDS011;35679;38.732;-121.358;2022-08-11T08:39:02;2.08;;;1.80;;
49784;SDS011;35679;38.732;-121.358;2022-08-11T08:41:52;1.77;;;1.67;;
49784;SDS011;35679;38.732;-121.358;2022-08-11T08:44:51;1.80;;;1.70;;
49784;SDS011;35679;38.732;-121.358;2022-08-11T08:48:06;1.75;;;1.65;;
49784;SDS011;35679;38.732;-121.358;2022-08-11T08:51:07;1.80;;;1.70;;
49784;SDS011;35679;38.732;-121.358;2022-08-11T08:54:38;1.80;;;1.70;;
49784;SDS011;35679;38.732;-121.358;2022-08-11T08:57:31;2.55;;;2.03;;
49784;SDS011;35679;38.732;-121.358;2022-08-11T09:00:37;1.88;;;1.77;;
49784;SDS011;35679;38.732;-121.358;2022-08-11T09:03:28;1.88;;;1.80;;
49784;SDS011;35679;38.732;-121.358;2022-08-11T09:06:38;1.80;;;1.70;;
49784;SDS011;35679;38.732;-121.358;2022-08-11T09:09:35;1.88;;;1.70;;
49784;SDS011;35679;38.732;-121.358;2022-08-11T09:12:27;1.90;;;1.77;;
49784;SDS011;35679;38.732;-121.358;2022-08-11T09:15:24;2.00;;;1.90;;
49784;SDS011;35679;38.732;-121.358;2022-08-11T09:18:15;1.73;;;1.63;;
49784;SDS011;35679;38.732;-121.358;2022-08-11T09:21:05;2.45;;;1.70;;
49784;SDS011;35679;38.732;-121.358;2022-08-11T09:23:55;1.90;;;1.70;;
49784;SDS011;35679;38.732;-121.358;2022-08-11T09:27:18;2.13;;;1.90;;
49784;SDS011;35679;38.732;-121.358;2022-08-11T09:30:10;2.03;;;1.92;;
49784;SDS011;35679;38.732;-121.358;2022-08-11T09:33:00;2.28;;;1.70;;
49784;SDS011;35679;38.732;-121.358;2022-08-11T09:35:53;1.60;;;1.50;;
49784;SDS011;35679;38.732;-121.358;2022-08-11T09:38:42;1.95;;;1.77;;
49784;SDS011;35679;38.732;-121.358;2022-08-11T09:41:51;1.90;;;1.80;;
49784;SDS011;35679;38.732;-121.358;2022-08-11T09:45:01;1.95;;;1.83;;
49784;SDS011;35679;38.732;-121.358;2022-08-11T09:47:51;2.03;;;1.92;;
49784;SDS011;35679;38.732;-121.358;2022-08-11T09:50:42;1.95;;;1.85;;
49784;SDS011;35679;38.732;-121.358;2022-08-11T09:53:36;4.30;;;1.90;;
49784;SDS011;35679;38.732;-121.358;2022-08-11T09:56:33;2.00;;;1.90;;
49784;SDS011;35679;38.732;-121.358;2022-08-11T09:59:41;2.47;;;1.92;;
49784;SDS011;35679;38.732;-121.358;2022-08-11T10:02:30;1.83;;;1.70;;
49784;SDS011;35679;38.732;-121.358;2022-08-11T10:05:20;2.10;;;1.90;;
49784;SDS011;35679;38.732;-121.358;2022-08-11T10:08:28;1.88;;;1.73;;
49784;SDS011;35679;38.732;-121.358;2022-08-11T10:11:20;2.15;;;2.05;;
49784;SDS011;35679;38.732;-121.358;2022-08-11T10:14:12;1.80;;;1.70;;
49784;SDS011;35679;38.732;-121.358;2022-08-11T10:17:21;1.92;;;1.83;;
49784;SDS011;35679;38.732;-121.358;2022-08-11T10:20:11;2.10;;;2.00;;
49784;SDS011;35679;38.732;-121.358;2022-08-11T10:23:01;2.10;;;2.00;;
49784;SDS011;35679;38.732;-121.358;2022-08-11T10:26:09;2.60;;;2.00;;
49784;SDS011;35679;38.732;-121.358;2022-08-11T10:29:23;2.15;;;1.95;;
49784;SDS011;35679;38.732;-121.358;2022-08-11T10:32:37;2.05;;;1.90;;
49784;SDS011;35679;38.732;-121.358;2022-08-11T10:35:46;1.95;;;1.80;;
49784;SDS011;35679;38.732;-121.358;2022-08-11T10:38:36;1.92;;;1.83;;
49784;SDS011;35679;38.732;-121.358;2022-08-11T10:41:26;2.08;;;1.92;;
49784;SDS011;35679;38.732;-121.358;2022-08-11T10:44:56;1.92;;;1.80;;
49784;SDS011;35679;38.732;-121.358;2022-08-11T10:47:46;1.80;;;1.70;;
49784;SDS011;35679;38.732;-121.358;2022-08-11T10:50:36;2.05;;;1.95;;
49784;SDS011;35679;38.732;-121.358;2022-08-11T10:53:45;1.85;;;1.75;;
49784;SDS011;35679;38.732;-121.358;2022-08-11T10:56:59;1.95;;;1.77;;
49784;SDS011;35679;38.732;-121.358;2022-08-11T11:00:08;2.15;;;1.92;;
49784;SDS011;35679;38.732;-121.358;2022-08-11T11:03:02;2.20;;;2.10;;
49784;SDS011;35679;38.732;-121.358;2022-08-11T11:09:27;2.08;;;1.98;;
49784;SDS011;35679;38.732;-121.358;2022-08-11T11:12:23;2.90;;;2.00;;
49784;SDS011;35679;38.732;-121.358;2022-08-11T11:15:36;2.78;;;2.00;;
49784;SDS011;35679;38.732;-121.358;2022-08-11T11:19:07;4.25;;;2.00;;
49784;SDS011;35679;38.732;-121.358;2022-08-11T11:21:58;3.77;;;2.40;;
49784;SDS011;35679;38.732;-121.358;2022-08-11T11:31:32;4.53;;;2.58;;
49784;SDS011;35679;38.732;-121.358;2022-08-11T11:34:58;2.72;;;2.50;;
49784;SDS011;35679;38.732;-121.358;2022-08-11T11:38:04;3.25;;;2.53;;
49784;SDS011;35679;38.732;-121.358;2022-08-11T11:41:00;3.10;;;2.67;;
49784;SDS011;35679;38.732;-121.358;2022-08-11T11:44:08;2.97;;;2.58;;
49784;SDS011;35679;38.732;-121.358;2022-08-11T11:47:00;4.22;;;2.80;;
49784;SDS011;35679;38.732;-121.358;2022-08-11T11:49:50;3.22;;;2.45;;
49784;SDS011;35679;38.732;-121.358;2022-08-11T11:52:40;4.25;;;2.92;;
49784;SDS011;35679;38.732;-121.358;2022-08-11T11:55:31;3.65;;;2.60;;
49784;SDS011;35679;38.732;-121.358;2022-08-11T11:58:22;2.70;;;2.50;;
49784;SDS011;35679;38.732;-121.358;2022-08-11T12:01:30;2.92;;;2.60;;
49784;SDS011;35679;38.732;-121.358;2022-08-11T12:04:21;3.00;;;2.70;;
49784;SDS011;35679;38.732;-121.358;2022-08-11T12:07:11;2.90;;;2.65;;
49784;SDS011;35679;38.732;-121.358;2022-08-11T12:10:19;3.47;;;2.58;;
49784;SDS011;35679;38.732;-121.358;2022-08-11T12:13:09;2.58;;;2.38;;
49784;SDS011;35679;38.732;-121.358;2022-08-11T12:16:18;2.97;;;2.75;;
49784;SDS011;35679;38.732;-121.358;2022-08-11T12:19:24;3.97;;;2.53;;
49784;SDS011;35679;38.732;-121.358;2022-08-11T12:22:22;3.80;;;2.78;;
49784;SDS011;35679;38.732;-121.358;2022-08-11T12:25:31;3.28;;;2.80;;
49784;SDS011;35679;38.732;-121.358;2022-08-11T12:29:02;2.97;;;2.60;;
49784;SDS011;35679;38.732;-121.358;2022-08-11T12:31:56;4.45;;;2.75;;
49784;SDS011;35679;38.732;-121.358;2022-08-11T12:34:51;4.78;;;3.58;;
49784;SDS011;35679;38.732;-121.358;2022-08-11T12:37:48;4.38;;;2.80;;
49784;SDS011;35679;38.732;-121.358;2022-08-11T12:40:56;3.95;;;2.50;;
49784;SDS011;35679;38.732;-121.358;2022-08-11T12:44:06;3.28;;;3.08;;
49784;SDS011;35679;38.732;-121.358;2022-08-11T12:47:18;3.35;;;2.60;;
49784;SDS011;35679;38.732;-121.358;2022-08-11T12:50:08;3.00;;;2.70;;
49784;SDS011;35679;38.732;-121.358;2022-08-11T12:53:30;2.92;;;2.63;;
49784;SDS011;35679;38.732;-121.358;2022-08-11T12:56:21;2.63;;;2.42;;
49784;SDS011;35679;38.732;-121.358;2022-08-11T12:59:30;4.82;;;2.60;;
49784;SDS011;35679;38.732;-121.358;2022-08-11T13:02:39;4.70;;;2.72;;
49784;SDS011;35679;38.732;-121.358;2022-08-11T13:05:47;3.42;;;2.40;;
49784;SDS011;35679;38.732;-121.358;2022-08-11T13:08:40;2.80;;;2.60;;
49784;SDS011;35679;38.732;-121.358;2022-08-11T13:11:30;5.45;;;3.20;;
49784;SDS011;35679;38.732;-121.358;2022-08-11T13:14:43;4.20;;;2.60;;
49784;SDS011;35679;38.732;-121.358;2022-08-11T13:17:32;3.17;;;2.90;;
49784;SDS011;35679;38.732;-121.358;2022-08-11T13:20:30;4.18;;;2.80;;
49784;SDS011;35679;38.732;-121.358;2022-08-11T13:23:20;2.80;;;2.58;;
49784;SDS011;35679;38.732;-121.358;2022-08-11T13:26:11;3.72;;;2.70;;
49784;SDS011;35679;38.732;-121.358;2022-08-11T13:29:01;3.55;;;2.70;;
49784;SDS011;35679;38.732;-121.358;2022-08-11T13:31:52;2.72;;;2.40;;
49784;SDS011;35679;38.732;-121.358;2022-08-11T13:34:44;3.22;;;2.90;;
49784;SDS011;35679;38.732;-121.358;2022-08-11T13:37:34;3.78;;;2.95;;
49784;SDS011;35679;38.732;-121.358;2022-08-11T13:40:44;3.10;;;2.83;;
49784;SDS011;35679;38.732;-121.358;2022-08-11T13:43:42;4.85;;;2.55;;
49784;SDS011;35679;38.732;-121.358;2022-08-11T13:46:32;3.20;;;2.80;;
49784;SDS011;35679;38.732;-121.358;2022-08-11T13:49:22;5.93;;;2.85;;
49784;SDS011;35679;38.732;-121.358;2022-08-11T13:52:12;3.90;;;2.63;;
49784;SDS011;35679;38.732;-121.358;2022-08-11T13:55:04;3.38;;;2.60;;
49784;SDS011;35679;38.732;-121.358;2022-08-11T13:58:16;6.68;;;2.50;;
49784;SDS011;35679;38.732;-121.358;2022-08-11T14:01:28;4.80;;;3.13;;
49784;SDS011;35679;38.732;-121.358;2022-08-11T14:04:54;2.97;;;2.50;;
49784;SDS011;35679;38.732;-121.358;2022-08-11T14:07:49;3.40;;;2.90;;
49784;SDS011;35679;38.732;-121.358;2022-08-11T14:10:41;3.22;;;2.72;;
49784;SDS011;35679;38.732;-121.358;2022-08-11T14:13:32;3.58;;;2.65;;
49784;SDS011;35679;38.732;-121.358;2022-08-11T14:16:34;4.05;;;2.50;;
49784;SDS011;35679;38.732;-121.358;2022-08-11T14:19:31;4.03;;;2.80;;
49784;SDS011;35679;38.732;-121.358;2022-08-11T14:22:28;3.22;;;2.75;;
49784;SDS011;35679;38.732;-121.358;2022-08-11T14:25:17;7.35;;;2.70;;
49784;SDS011;35679;38.732;-121.358;2022-08-11T14:28:28;4.68;;;2.83;;
49784;SDS011;35679;38.732;-121.358;2022-08-11T14:34:25;2.67;;;2.38;;
49784;SDS011;35679;38.732;-121.358;2022-08-11T14:37:20;3.08;;;2.85;;
49784;SDS011;35679;38.732;-121.358;2022-08-11T14:40:11;4.38;;;2.95;;
49784;SDS011;35679;38.732;-121.358;2022-08-11T14:43:20;4.13;;;2.80;;
49784;SDS011;35679;38.732;-121.358;2022-08-11T14:46:48;2.92;;;2.63;;
49784;SDS011;35679;38.732;-121.358;2022-08-11T14:50:12;4.18;;;3.22;;
49784;SDS011;35679;38.732;-121.358;2022-08-11T14:53:07;5.18;;;2.90;;
49784;SDS011;35679;38.732;-121.358;2022-08-11T14:56:05;2.95;;;2.60;;
49784;SDS011;35679;38.732;-121.358;2022-08-11T14:59:12;3.10;;;2.90;;
49784;SDS011;35679;38.732;-121.358;2022-08-11T15:02:03;3.42;;;2.80;;
49784;SDS011;35679;38.732;-121.358;2022-08-11T15:05:11;3.80;;;2.97;;
49784;SDS011;35679;38.732;-121.358;2022-08-11T15:08:01;4.57;;;2.70;;
49784;SDS011;35679;38.732;-121.358;2022-08-11T15:10:51;3.83;;;2.85;;
49784;SDS011;35679;38.732;-121.358;2022-08-11T15:13:41;2.92;;;2.70;;
49784;SDS011;35679;38.732;-121.358;2022-08-11T15:16:30;3.38;;;2.78;;
49784;SDS011;35679;38.732;-121.358;2022-08-11T15:19:39;3.75;;;2.72;;
49784;SDS011;35679;38.732;-121.358;2022-08-11T15:22:49;4.22;;;3.05;;
49784;SDS011;35679;38.732;-121.358;2022-08-11T15:26:06;5.20;;;2.85;;
49784;SDS011;35679;38.732;-121.358;2022-08-11T15:28:58;7.35;;;3.00;;
49784;SDS011;35679;38.732;-121.358;2022-08-11T15:32:20;3.97;;;2.78;;
49784;SDS011;35679;38.732;-121.358;2022-08-11T15:35:30;3.60;;;2.67;;
49784;SDS011;35679;38.732;-121.358;2022-08-11T15:39:11;3.08;;;2.78;;
49784;SDS011;35679;38.732;-121.358;2022-08-11T15:42:11;4.85;;;2.83;;
49784;SDS011;35679;38.732;-121.358;2022-08-11T15:51:36;4.53;;;2.70;;
49784;SDS011;35679;38.732;-121.358;2022-08-11T15:54:31;4.15;;;2.85;;
49784;SDS011;35679;38.732;-121.358;2022-08-11T15:57:21;6.45;;;2.70;;
49784;SDS011;35679;38.732;-121.358;2022-08-11T16:00:29;5.30;;;2.53;;
49784;SDS011;35679;38.732;-121.358;2022-08-11T16:04:02;3.38;;;2.83;;
49784;SDS011;35679;38.732;-121.358;2022-08-11T16:07:04;4.20;;;2.80;;
49784;SDS011;35679;38.732;-121.358;2022-08-11T16:10:14;3.90;;;2.80;;
49784;SDS011;35679;38.732;-121.358;2022-08-11T16:13:11;3.22;;;2.92;;
49784;SDS011;35679;38.732;-121.358;2022-08-11T16:16:02;3.42;;;2.63;;
49784;SDS011;35679;38.732;-121.358;2022-08-11T16:19:03;2.85;;;2.60;;
49784;SDS011;35679;38.732;-121.358;2022-08-11T16:21:56;3.20;;;2.90;;
49784;SDS011;35679;38.732;-121.358;2022-08-11T16:24:45;3.83;;;2.58;;
49784;SDS011;35679;38.732;-121.358;2022-08-11T16:28:01;2.95;;;2.50;;
49784;SDS011;35679;38.732;-121.358;2022-08-11T16:31:00;4.25;;;2.70;;
49784;SDS011;35679;38.732;-121.358;2022-08-11T16:33:50;3.17;;;2.60;;
49784;SDS011;35679;38.732;-121.358;2022-08-11T16:36:40;3.33;;;2.70;;
49784;SDS011;35679;38.732;-121.358;2022-08-11T16:39:48;3.10;;;2.50;;
49784;SDS011;35679;38.732;-121.358;2022-08-11T16:42:38;3.20;;;2.70;;
49784;SDS011;35679;38.732;-121.358;2022-08-11T16:45:57;2.75;;;2.55;;
49784;SDS011;35679;38.732;-121.358;2022-08-11T16:49:12;2.63;;;2.42;;
49784;SDS011;35679;38.732;-121.358;2022-08-11T16:52:24;4.35;;;2.80;;
49784;SDS011;35679;38.732;-121.358;2022-08-11T16:55:13;3.10;;;2.80;;
49784;SDS011;35679;38.732;-121.358;2022-08-11T16:58:23;3.55;;;2.45;;
49784;SDS011;35679;38.732;-121.358;2022-08-11T17:01:31;3.10;;;2.80;;
49784;SDS011;35679;38.732;-121.358;2022-08-11T17:04:29;2.67;;;2.47;;
49784;SDS011;35679;38.732;-121.358;2022-08-11T17:07:38;3.25;;;2.72;;
49784;SDS011;35679;38.732;-121.358;2022-08-11T17:10:59;3.03;;;2.83;;
49784;SDS011;35679;38.732;-121.358;2022-08-11T17:14:10;2.50;;;2.40;;
49784;SDS011;35679;38.732;-121.358;2022-08-11T17:17:35;2.78;;;2.58;;
49784;SDS011;35679;38.732;-121.358;2022-08-11T17:20:28;3.35;;;2.55;;
49784;SDS011;35679;38.732;-121.358;2022-08-11T17:23:30;3.53;;;2.70;;
49784;SDS011;35679;38.732;-121.358;2022-08-11T17:26:40;3.03;;;2.83;;
49784;SDS011;35679;38.732;-121.358;2022-08-11T17:29:49;2.88;;;2.67;;
49784;SDS011;35679;38.732;-121.358;2022-08-11T17:32:44;3.10;;;2.80;;
49784;SDS011;35679;38.732;-121.358;2022-08-11T17:38:45;3.28;;;2.63;;
49784;SDS011;35679;38.732;-121.358;2022-08-11T17:41:37;3.07;;;2.73;;
49784;SDS011;35679;38.732;-121.358;2022-08-11T17:44:46;3.10;;;2.50;;
49784;SDS011;35679;38.732;-121.358;2022-08-11T17:47:55;2.63;;;2.50;;
49784;SDS011;35679;38.732;-121.358;2022-08-11T17:51:06;2.63;;;2.38;;
49784;SDS011;35679;38.732;-121.358;2022-08-11T17:53:57;2.80;;;2.60;;
49784;SDS011;35679;38.732;-121.358;2022-08-11T17:57:12;2.67;;;2.47;;
49784;SDS011;35679;38.732;-121.358;2022-08-11T18:00:20;3.22;;;2.50;;
49784;SDS011;35679;38.732;-121.358;2022-08-11T18:03:14;2.90;;;2.70;;
49784;SDS011;35679;38.732;-121.358;2022-08-11T18:06:21;3.15;;;2.85;;
49784;SDS011;35679;38.732;-121.358;2022-08-11T18:09:20;2.55;;;2.40;;
49784;SDS011;35679;38.732;-121.358;2022-08-11T18:12:29;2.75;;;2.63;;
49784;SDS011;35679;38.732;-121.358;2022-08-11T18:15:39;2.72;;;2.40;;
49784;SDS011;35679;38.732;-121.358;2022-08-11T18:18:50;3.47;;;2.40;;
49784;SDS011;35679;38.732;-121.358;2022-08-11T18:22:04;3.05;;;2.72;;
49784;SDS011;35679;38.732;-121.358;2022-08-11T18:25:16;3.00;;;2.70;;
49784;SDS011;35679;38.732;-121.358;2022-08-11T18:28:34;2.47;;;2.28;;
49784;SDS011;35679;38.732;-121.358;2022-08-11T18:31:49;2.40;;;2.30;;
49784;SDS011;35679;38.732;-121.358;2022-08-11T18:35:09;2.53;;;2.33;;
49784;SDS011;35679;38.732;-121.358;2022-08-11T18:38:20;2.60;;;2.40;;
49784;SDS011;35679;38.732;-121.358;2022-08-11T18:41:33;2.97;;;2.22;;
49784;SDS011;35679;38.732;-121.358;2022-08-11T18:44:43;2.78;;;2.58;;
49784;SDS011;35679;38.732;-121.358;2022-08-11T18:47:55;2.70;;;2.50;;
49784;SDS011;35679;38.732;-121.358;2022-08-11T18:51:08;2.50;;;2.30;;
49784;SDS011;35679;38.732;-121.358;2022-08-11T18:54:23;2.70;;;2.50;;
49784;SDS011;35679;38.732;-121.358;2022-08-11T18:57:39;2.67;;;2.47;;
49784;SDS011;35679;38.732;-121.358;2022-08-11T19:00:48;2.85;;;2.40;;
49784;SDS011;35679;38.732;-121.358;2022-08-11T19:03:58;3.10;;;2.50;;
49784;SDS011;35679;38.732;-121.358;2022-08-11T19:07:08;2.80;;;2.50;;
49784;SDS011;35679;38.732;-121.358;2022-08-11T19:10:19;2.80;;;2.50;;
49784;SDS011;35679;38.732;-121.358;2022-08-11T19:13:28;2.95;;;2.55;;
49784;SDS011;35679;38.732;-121.358;2022-08-11T19:16:38;2.70;;;2.50;;
49784;SDS011;35679;38.732;-121.358;2022-08-11T19:19:49;2.65;;;2.45;;
49784;SDS011;35679;38.732;-121.358;2022-08-11T19:22:58;2.50;;;2.30;;
49784;SDS011;35679;38.732;-121.358;2022-08-11T19:26:07;2.25;;;2.15;;
49784;SDS011;35679;38.732;-121.358;2022-08-11T19:29:15;2.67;;;2.33;;
49784;SDS011;35679;38.732;-121.358;2022-08-11T19:32:46;2.75;;;2.45;;
49784;SDS011;35679;38.732;-121.358;2022-08-11T19:35:55;2.47;;;2.38;;
49784;SDS011;35679;38.732;-121.358;2022-08-11T19:39:05;2.78;;;2.55;;
49784;SDS011;35679;38.732;-121.358;2022-08-11T19:42:15;2.60;;;2.40;;
49784;SDS011;35679;38.732;-121.358;2022-08-11T19:45:24;4.07;;;2.40;;
49784;SDS011;35679;38.732;-121.358;2022-08-11T19:48:39;2.65;;;2.42;;
49784;SDS011;35679;38.732;-121.358;2022-08-11T19:51:49;2.67;;;2.55;;
49784;SDS011;35679;38.732;-121.358;2022-08-11T19:54:58;2.70;;;2.40;;
49784;SDS011;35679;38.732;-121.358;2022-08-11T19:58:07;2.75;;;2.55;;
49784;SDS011;35679;38.732;-121.358;2022-08-11T20:01:14;2.65;;;2.45;;
49784;SDS011;35679;38.732;-121.358;2022-08-11T20:04:22;2.78;;;2.58;;
49784;SDS011;35679;38.732;-121.358;2022-08-11T20:07:32;2.72;;;2.53;;
49784;SDS011;35679;38.732;-121.358;2022-08-11T20:10:42;2.63;;;2.50;;
49784;SDS011;35679;38.732;-121.358;2022-08-11T20:13:52;3.03;;;2.22;;
49784;SDS011;35679;38.732;-121.358;2022-08-11T20:17:01;2.67;;;2.47;;
49784;SDS011;35679;38.732;-121.358;2022-08-11T20:20:09;5.32;;;2.55;;
49784;SDS011;35679;38.732;-121.358;2022-08-11T20:23:21;2.63;;;2.40;;
49784;SDS011;35679;38.732;-121.358;2022-08-11T20:26:32;2.70;;;2.50;;
49784;SDS011;35679;38.732;-121.358;2022-08-11T20:29:42;2.75;;;2.55;;
49784;SDS011;35679;38.732;-121.358;2022-08-11T20:32:51;2.58;;;2.38;;
49784;SDS011;35679;38.732;-121.358;2022-08-11T20:35:58;2.55;;;2.45;;
49784;SDS011;35679;38.732;-121.358;2022-08-11T20:39:08;2.67;;;2.47;;
49784;SDS011;35679;38.732;-121.358;2022-08-11T20:42:18;2.50;;;2.30;;
49784;SDS011;35679;38.732;-121.358;2022-08-11T20:45:27;2.35;;;2.20;;
49784;SDS011;35679;38.732;-121.358;2022-08-11T20:48:43;2.60;;;2.40;;
49784;SDS011;35679;38.732;-121.358;2022-08-11T20:51:52;2.90;;;2.70;;
49784;SDS011;35679;38.732;-121.358;2022-08-11T20:55:00;2.58;;;2.40;;
49784;SDS011;35679;38.732;-121.358;2022-08-11T20:58:29;3.10;;;2.80;;
49784;SDS011;35679;38.732;-121.358;2022-08-11T21:01:59;2.65;;;2.47;;
49784;SDS011;35679;38.732;-121.358;2022-08-11T21:05:08;2.20;;;2.10;;
49784;SDS011;35679;38.732;-121.358;2022-08-11T21:08:36;2.45;;;2.35;;
49784;SDS011;35679;38.732;-121.358;2022-08-11T21:11:47;3.33;;;2.58;;
49784;SDS011;35679;38.732;-121.358;2022-08-11T21:15:00;2.60;;;2.40;;